sensor_id;sensor_type;location;lat;lon;timestamp;pressure;altitude;pressure_sealevel;temperature;humidity
23223;BME280;11780;13.904;100.620;2023-04-08T00:00:04;101209.59;;;31.82;nan
23223;BME280;11780;13.904;100.620;2023-04-08T00:02:36;101219.19;;;31.85;nan
23223;BME280;11780;13.904;100.620;2023-04-08T00:05:07;101222.78;;;31.85;nan
23223;BME280;11780;13.904;100.620;2023-04-08T00:10:19;101229.16;;;31.95;69.26
23223;BME280;11780;13.904;100.620;2023-04-08T00:12:49;101230.31;;;31.94;69.01
23223;BME280;11780;13.904;100.620;2023-04-08T00:15:19;101233.69;;;31.91;69.21
23223;BME280;11780;13.904;100.620;2023-04-08T00:17:50;101233.25;;;31.97;69.03
23223;BME280;11780;13.904;100.620;2023-04-08T00:20:23;101232.44;;;31.97;69.40
23223;BME280;11780;13.904;100.620;2023-04-08T00:22:53;101239.88;;;31.87;69.03
23223;BME280;11780;13.904;100.620;2023-04-08T00:25:24;101246.41;;;31.92;69.30
23223;BME280;11780;13.904;100.620;2023-04-08T00:27:54;101257.59;;;31.86;69.43
23223;BME280;11780;13.904;100.620;2023-04-08T00:30:26;101260.38;;;31.86;68.98
23223;BME280;11780;13.904;100.620;2023-04-08T00:32:57;101256.66;;;31.91;68.88
23223;BME280;11780;13.904;100.620;2023-04-08T00:35:27;101268.53;;;31.92;69.13
23223;BME280;11780;13.904;100.620;2023-04-08T00:37:57;101279.59;;;31.92;69.03
23223;BME280;11780;13.904;100.620;2023-04-08T00:40:27;101293.94;;;31.94;69.04
23223;BME280;11780;13.904;100.620;2023-04-08T00:42:58;101292.31;;;31.93;69.37
23223;BME280;11780;13.904;100.620;2023-04-08T00:45:28;101293.94;;;31.94;69.03
23223;BME280;11780;13.904;100.620;2023-04-08T00:47:58;101308.28;;;31.96;69.35
23223;BME280;11780;13.904;100.620;2023-04-08T00:50:29;101309.28;;;32.00;69.30
23223;BME280;11780;13.904;100.620;2023-04-08T00:52:59;101315.63;;;32.00;68.84
23223;BME280;11780;13.904;100.620;2023-04-08T00:55:30;101316.75;;;31.99;69.14
23223;BME280;11780;13.904;100.620;2023-04-08T00:58:00;101319.19;;;32.01;68.90
23223;BME280;11780;13.904;100.620;2023-04-08T01:00:30;101317.44;;;32.05;69.02
23223;BME280;11780;13.904;100.620;2023-04-08T01:08:32;101341.38;;;32.10;69.26
23223;BME280;11780;13.904;100.620;2023-04-08T01:11:09;101349.50;;;32.06;69.58
23223;BME280;11780;13.904;100.620;2023-04-08T01:13:42;101361.06;;;32.08;69.68
23223;BME280;11780;13.904;100.620;2023-04-08T01:16:14;101364.34;;;32.10;69.37
23223;BME280;11780;13.904;100.620;2023-04-08T01:18:47;101366.47;;;32.13;70.09
23223;BME280;11780;13.904;100.620;2023-04-08T01:21:23;101372.00;;;32.13;69.37
23223;BME280;11780;13.904;100.620;2023-04-08T01:24:19;101382.13;;;32.18;69.57
23223;BME280;11780;13.904;100.620;2023-04-08T01:26:56;101396.13;;;32.22;69.32
23223;BME280;11780;13.904;100.620;2023-04-08T01:29:28;101391.72;;;32.20;69.17
23223;BME280;11780;13.904;100.620;2023-04-08T01:32:00;101394.22;;;32.22;69.45
23223;BME280;11780;13.904;100.620;2023-04-08T01:34:30;101380.03;;;32.24;69.44
23223;BME280;11780;13.904;100.620;2023-04-08T01:37:03;101376.13;;;32.25;69.03
23223;BME280;11780;13.904;100.620;2023-04-08T01:39:36;101392.16;;;32.28;68.75
23223;BME280;11780;13.904;100.620;2023-04-08T01:42:07;101382.47;;;32.25;68.90
23223;BME280;11780;13.904;100.620;2023-04-08T01:44:39;101387.09;;;32.30;68.94
23223;BME280;11780;13.904;100.620;2023-04-08T01:47:09;101379.59;;;32.30;68.94
23223;BME280;11780;13.904;100.620;2023-04-08T01:49:43;101385.97;;;32.31;68.66
23223;BME280;11780;13.904;100.620;2023-04-08T01:52:15;101389.38;;;32.28;68.79
23223;BME280;11780;13.904;100.620;2023-04-08T01:54:47;101398.19;;;32.30;69.02
23223;BME280;11780;13.904;100.620;2023-04-08T01:57:26;101390.69;;;32.30;68.44
23223;BME280;11780;13.904;100.620;2023-04-08T02:00:02;101393.78;;;32.29;68.67
23223;BME280;11780;13.904;100.620;2023-04-08T02:02:47;101402.88;;;32.29;68.46
23223;BME280;11780;13.904;100.620;2023-04-08T02:05:19;101407.28;;;32.30;68.49
23223;BME280;11780;13.904;100.620;2023-04-08T02:07:49;101411.38;;;32.33;68.79
23223;BME280;11780;13.904;100.620;2023-04-08T02:10:21;101411.69;;;32.31;68.24
23223;BME280;11780;13.904;100.620;2023-04-08T02:12:51;101414.63;;;32.35;68.54
23223;BME280;11780;13.904;100.620;2023-04-08T02:15:47;101416.28;;;32.36;68.21
23223;BME280;11780;13.904;100.620;2023-04-08T02:18:24;101417.41;;;32.35;68.44
23223;BME280;11780;13.904;100.620;2023-04-08T02:21:15;101410.22;;;32.34;68.04
23223;BME280;11780;13.904;100.620;2023-04-08T02:23:48;101416.78;;;32.38;67.91
23223;BME280;11780;13.904;100.620;2023-04-08T02:26:39;101407.16;;;32.36;67.67
23223;BME280;11780;13.904;100.620;2023-04-08T02:29:14;101420.03;;;32.40;67.88
23223;BME280;11780;13.904;100.620;2023-04-08T02:31:45;101418.06;;;32.41;67.89
23223;BME280;11780;13.904;100.620;2023-04-08T02:34:18;101418.06;;;32.41;68.04
23223;BME280;11780;13.904;100.620;2023-04-08T02:36:51;101415.81;;;32.43;68.14
23223;BME280;11780;13.904;100.620;2023-04-08T02:39:30;101412.25;;;32.42;67.81
23223;BME280;11780;13.904;100.620;2023-04-08T02:42:18;101403.94;;;32.42;68.01
23223;BME280;11780;13.904;100.620;2023-04-08T02:44:52;101414.69;;;32.44;67.90
23223;BME280;11780;13.904;100.620;2023-04-08T02:47:22;101403.59;;;32.44;68.04
23223;BME280;11780;13.904;100.620;2023-04-08T02:49:52;101407.72;;;32.46;68.25
23223;BME280;11780;13.904;100.620;2023-04-08T02:52:23;101400.53;;;32.45;67.85
23223;BME280;11780;13.904;100.620;2023-04-08T02:54:54;101395.00;;;32.45;68.02
23223;BME280;11780;13.904;100.620;2023-04-08T02:57:25;101391.09;;;32.46;67.49
23223;BME280;11780;13.904;100.620;2023-04-08T02:59:55;101397.09;;;32.48;67.59
23223;BME280;11780;13.904;100.620;2023-04-08T03:02:25;101393.53;;;32.48;68.17
23223;BME280;11780;13.904;100.620;2023-04-08T03:05:14;101391.56;;;32.48;68.11
23223;BME280;11780;13.904;100.620;2023-04-08T03:08:03;101376.59;;;32.49;67.40
23223;BME280;11780;13.904;100.620;2023-04-08T03:10:35;101382.63;;;32.52;67.39
23223;BME280;11780;13.904;100.620;2023-04-08T03:13:06;101387.84;;;32.53;67.33
23223;BME280;11780;13.904;100.620;2023-04-08T03:15:36;101389.50;;;32.54;66.91
23223;BME280;11780;13.904;100.620;2023-04-08T03:18:06;101391.09;;;32.55;67.08
23223;BME280;11780;13.904;100.620;2023-04-08T03:20:37;101386.41;;;32.56;67.02
23223;BME280;11780;13.904;100.620;2023-04-08T03:23:07;101380.84;;;32.56;66.74
23223;BME280;11780;13.904;100.620;2023-04-08T03:25:37;101374.19;;;32.57;66.58
23223;BME280;11780;13.904;100.620;2023-04-08T03:28:08;101374.97;;;32.57;66.72
23223;BME280;11780;13.904;100.620;2023-04-08T03:30:38;101378.59;;;32.58;66.12
23223;BME280;11780;13.904;100.620;2023-04-08T03:33:08;101373.84;;;32.58;66.14
23223;BME280;11780;13.904;100.620;2023-04-08T03:35:38;101376.31;;;32.60;65.81
23223;BME280;11780;13.904;100.620;2023-04-08T03:38:09;101365.25;;;32.60;65.98
23223;BME280;11780;13.904;100.620;2023-04-08T03:40:40;101366.03;;;32.60;65.96
23223;BME280;11780;13.904;100.620;2023-04-08T03:43:12;101364.41;;;32.59;66.12
23223;BME280;11780;13.904;100.620;2023-04-08T03:45:42;101366.88;;;32.61;65.85
23223;BME280;11780;13.904;100.620;2023-04-08T03:48:13;101364.09;;;32.61;65.66
23223;BME280;11780;13.904;100.620;2023-04-08T03:50:43;101356.25;;;32.63;65.38
23223;BME280;11780;13.904;100.620;2023-04-08T03:53:13;101359.88;;;32.63;65.69
23223;BME280;11780;13.904;100.620;2023-04-08T03:55:46;101350.72;;;32.63;65.49
23223;BME280;11780;13.904;100.620;2023-04-08T03:58:17;101357.91;;;32.64;64.87
23223;BME280;11780;13.904;100.620;2023-04-08T04:00:48;101348.94;;;32.67;65.27
23223;BME280;11780;13.904;100.620;2023-04-08T04:03:18;101341.78;;;32.66;64.80
23223;BME280;11780;13.904;100.620;2023-04-08T04:05:49;101346.69;;;32.69;64.81
23223;BME280;11780;13.904;100.620;2023-04-08T04:08:20;101337.72;;;32.72;64.39
23223;BME280;11780;13.904;100.620;2023-04-08T04:10:50;101327.44;;;32.73;64.09
23223;BME280;11780;13.904;100.620;2023-04-08T04:13:20;101322.75;;;32.73;63.78
23223;BME280;11780;13.904;100.620;2023-04-08T04:15:51;101329.91;;;32.74;63.76
23223;BME280;11780;13.904;100.620;2023-04-08T04:18:21;101324.38;;;32.74;63.67
23223;BME280;11780;13.904;100.620;2023-04-08T04:20:52;101323.72;;;32.77;63.69
23223;BME280;11780;13.904;100.620;2023-04-08T04:23:22;101316.56;;;32.76;63.13
23223;BME280;11780;13.904;100.620;2023-04-08T04:25:54;101312.97;;;32.76;63.22
23223;BME280;11780;13.904;100.620;2023-04-08T04:28:24;101310.69;;;32.78;62.93
23223;BME280;11780;13.904;100.620;2023-04-08T04:30:54;101308.56;;;32.75;63.24
23223;BME280;11780;13.904;100.620;2023-04-08T04:33:25;101300.75;;;32.77;62.49
23223;BME280;11780;13.904;100.620;2023-04-08T04:35:56;101290.94;;;32.79;62.18
23223;BME280;11780;13.904;100.620;2023-04-08T04:38:26;101288.53;;;32.78;62.42
23223;BME280;11780;13.904;100.620;2023-04-08T04:40:56;101283.78;;;32.78;62.00
23223;BME280;11780;13.904;100.620;2023-04-08T04:43:27;101286.56;;;32.78;62.57
23223;BME280;11780;13.904;100.620;2023-04-08T04:45:58;101285.41;;;32.79;61.96
23223;BME280;11780;13.904;100.620;2023-04-08T04:48:28;101283.78;;;32.78;62.10
23223;BME280;11780;13.904;100.620;2023-04-08T04:51:00;101273.19;;;32.80;61.85
23223;BME280;11780;13.904;100.620;2023-04-08T04:53:32;101268.50;;;32.81;61.63
23223;BME280;11780;13.904;100.620;2023-04-08T04:56:02;101265.75;;;32.81;61.42
23223;BME280;11780;13.904;100.620;2023-04-08T04:58:32;101262.63;;;32.83;61.67
23223;BME280;11780;13.904;100.620;2023-04-08T05:01:02;101254.31;;;32.83;61.18
23223;BME280;11780;13.904;100.620;2023-04-08T05:03:33;101252.69;;;32.90;60.52
23223;BME280;11780;13.904;100.620;2023-04-08T05:06:03;101254.19;;;32.88;60.95
23223;BME280;11780;13.904;100.620;2023-04-08T05:08:34;101241.63;;;32.90;60.78
23223;BME280;11780;13.904;100.620;2023-04-08T05:11:08;101235.44;;;32.93;60.55
23223;BME280;11780;13.904;100.620;2023-04-08T05:13:39;101233.00;;;32.92;60.65
23223;BME280;11780;13.904;100.620;2023-04-08T05:16:09;101224.00;;;32.95;60.32
23223;BME280;11780;13.904;100.620;2023-04-08T05:18:39;101227.59;;;32.95;60.22
23223;BME280;11780;13.904;100.620;2023-04-08T05:21:10;101225.97;;;32.94;60.54
23223;BME280;11780;13.904;100.620;2023-04-08T05:23:40;101209.34;;;32.94;60.41
23223;BME280;11780;13.904;100.620;2023-04-08T05:26:10;101219.59;;;32.94;60.64
23223;BME280;11780;13.904;100.620;2023-04-08T05:28:42;101212.91;;;32.95;60.22
23223;BME280;11780;13.904;100.620;2023-04-08T05:31:17;101207.88;;;32.97;59.87
23223;BME280;11780;13.904;100.620;2023-04-08T05:33:49;101202.66;;;32.95;60.20
23223;BME280;11780;13.904;100.620;2023-04-08T05:36:19;101201.38;;;32.93;60.32
23223;BME280;11780;13.904;100.620;2023-04-08T05:38:49;101201.38;;;32.93;60.48
23223;BME280;11780;13.904;100.620;2023-04-08T05:41:20;101195.97;;;32.97;59.86
23223;BME280;11780;13.904;100.620;2023-04-08T05:43:50;101188.97;;;32.99;60.01
23223;BME280;11780;13.904;100.620;2023-04-08T05:46:20;101168.28;;;32.97;59.64
23223;BME280;11780;13.904;100.620;2023-04-08T05:48:51;101177.38;;;32.97;59.93
23223;BME280;11780;13.904;100.620;2023-04-08T05:51:21;101166.31;;;32.97;59.85
23223;BME280;11780;13.904;100.620;2023-04-08T05:53:51;101164.03;;;32.99;59.43
23223;BME280;11780;13.904;100.620;2023-04-08T05:56:21;101162.38;;;32.98;59.55
23223;BME280;11780;13.904;100.620;2023-04-08T05:58:52;101164.66;;;33.05;59.13
23223;BME280;11780;13.904;100.620;2023-04-08T06:01:22;101153.25;;;33.06;58.86
23223;BME280;11780;13.904;100.620;2023-04-08T06:03:52;101147.88;;;33.10;58.74
23223;BME280;11780;13.904;100.620;2023-04-08T06:06:25;101141.66;;;33.13;58.70
23223;BME280;11780;13.904;100.620;2023-04-08T06:08:55;101143.78;;;33.16;58.58
23223;BME280;11780;13.904;100.620;2023-04-08T06:11:25;101121.59;;;33.16;58.66
23223;BME280;11780;13.904;100.620;2023-04-08T06:13:55;101116.06;;;33.16;58.51
23223;BME280;11780;13.904;100.620;2023-04-08T06:16:26;101111.81;;;33.19;58.07
23223;BME280;11780;13.904;100.620;2023-04-08T06:18:56;101109.53;;;33.21;58.15
23223;BME280;11780;13.904;100.620;2023-04-08T06:21:26;101098.22;;;33.26;57.75
23223;BME280;11780;13.904;100.620;2023-04-08T06:23:57;101106.22;;;33.28;57.51
23223;BME280;11780;13.904;100.620;2023-04-08T06:26:27;101091.38;;;33.32;57.09
23223;BME280;11780;13.904;100.620;2023-04-08T06:28:58;101090.56;;;33.32;57.07
23223;BME280;11780;13.904;100.620;2023-04-08T06:31:28;101089.09;;;33.34;57.44
23223;BME280;11780;13.904;100.620;2023-04-08T06:33:58;101080.13;;;33.37;57.26
23223;BME280;11780;13.904;100.620;2023-04-08T06:36:29;101086.16;;;33.39;56.98
23223;BME280;11780;13.904;100.620;2023-04-08T06:38:59;101084.84;;;33.37;57.13
23223;BME280;11780;13.904;100.620;2023-04-08T06:41:30;101071.00;;;33.37;57.18
23223;BME280;11780;13.904;100.620;2023-04-08T06:44:16;101072.63;;;33.38;57.03
23223;BME280;11780;13.904;100.620;2023-04-08T06:46:46;101073.44;;;33.38;56.84
23223;BME280;11780;13.904;100.620;2023-04-08T06:49:17;101062.34;;;33.38;57.13
23223;BME280;11780;13.904;100.620;2023-04-08T06:51:47;101058.59;;;33.34;56.98
23223;BME280;11780;13.904;100.620;2023-04-08T06:54:17;101061.66;;;33.33;57.23
23223;BME280;11780;13.904;100.620;2023-04-08T06:56:47;101058.09;;;33.32;56.87
23223;BME280;11780;13.904;100.620;2023-04-08T06:59:18;101054.19;;;33.33;56.93
23223;BME280;11780;13.904;100.620;2023-04-08T07:01:48;101048.81;;;33.37;56.84
23223;BME280;11780;13.904;100.620;2023-04-08T07:04:19;101056.31;;;33.36;56.72
23223;BME280;11780;13.904;100.620;2023-04-08T07:06:49;101045.03;;;33.42;56.34
23223;BME280;11780;13.904;100.620;2023-04-08T07:09:20;101043.41;;;33.40;56.17
23223;BME280;11780;13.904;100.620;2023-04-08T07:11:50;101035.56;;;33.43;56.11
23223;BME280;11780;13.904;100.620;2023-04-08T07:14:20;101038.81;;;33.45;55.84
23223;BME280;11780;13.904;100.620;2023-04-08T07:16:51;101030.84;;;33.43;55.58
23223;BME280;11780;13.904;100.620;2023-04-08T07:19:21;101031.63;;;33.44;55.62
23223;BME280;11780;13.904;100.620;2023-04-08T07:21:53;101027.25;;;33.43;55.83
23223;BME280;11780;13.904;100.620;2023-04-08T07:24:23;101013.38;;;33.43;55.73
23223;BME280;11780;13.904;100.620;2023-04-08T07:26:54;101019.75;;;33.43;55.52
23223;BME280;11780;13.904;100.620;2023-04-08T07:29:25;101014.00;;;33.48;55.37
23223;BME280;11780;13.904;100.620;2023-04-08T07:31:56;101007.16;;;33.46;55.10
23223;BME280;11780;13.904;100.620;2023-04-08T07:34:27;101004.88;;;33.48;55.06
23223;BME280;11780;13.904;100.620;2023-04-08T07:36:57;101000.28;;;33.52;54.62
23223;BME280;11780;13.904;100.620;2023-04-08T07:39:27;101000.59;;;33.50;55.17
23223;BME280;11780;13.904;100.620;2023-04-08T07:41:58;100994.75;;;33.52;54.82
23223;BME280;11780;13.904;100.620;2023-04-08T07:44:28;100976.13;;;33.52;55.14
23223;BME280;11780;13.904;100.620;2023-04-08T07:47:00;100969.44;;;33.53;54.99
23223;BME280;11780;13.904;100.620;2023-04-08T07:49:30;100956.03;;;33.55;54.90
23223;BME280;11780;13.904;100.620;2023-04-08T07:52:00;100954.06;;;33.56;54.94
23223;BME280;11780;13.904;100.620;2023-04-08T07:54:31;100945.91;;;33.60;54.65
23223;BME280;11780;13.904;100.620;2023-04-08T07:57:04;100949.16;;;33.62;54.76
23223;BME280;11780;13.904;100.620;2023-04-08T07:59:35;100938.06;;;33.62;54.69
23223;BME280;11780;13.904;100.620;2023-04-08T08:02:05;100931.81;;;33.65;54.85
23223;BME280;11780;13.904;100.620;2023-04-08T08:04:36;100938.06;;;33.62;54.94
23223;BME280;11780;13.904;100.620;2023-04-08T08:07:06;100936.09;;;33.62;54.73
23223;BME280;11780;13.904;100.620;2023-04-08T08:09:36;100929.88;;;33.65;54.45
23223;BME280;11780;13.904;100.620;2023-04-08T08:12:07;100938.31;;;33.69;54.29
23223;BME280;11780;13.904;100.620;2023-04-08T08:14:37;100930.81;;;33.69;54.12
23223;BME280;11780;13.904;100.620;2023-04-08T08:17:07;100921.34;;;33.70;54.10
23223;BME280;11780;13.904;100.620;2023-04-08T08:19:38;100920.88;;;33.68;54.02
23223;BME280;11780;13.904;100.620;2023-04-08T08:22:08;100911.06;;;33.71;53.83
23223;BME280;11780;13.904;100.620;2023-04-08T08:24:40;100910.69;;;33.73;53.66
23223;BME280;11780;13.904;100.620;2023-04-08T08:27:11;100900.44;;;33.73;53.51
23223;BME280;11780;13.904;100.620;2023-04-08T08:29:41;100906.09;;;33.77;53.36
23223;BME280;11780;13.904;100.620;2023-04-08T08:32:11;100898.13;;;33.75;53.20
23223;BME280;11780;13.904;100.620;2023-04-08T08:34:42;100886.69;;;33.77;53.44
23223;BME280;11780;13.904;100.620;2023-04-08T08:37:12;100893.06;;;33.77;53.13
23223;BME280;11780;13.904;100.620;2023-04-08T08:39:42;100901.03;;;33.79;53.26
23223;BME280;11780;13.904;100.620;2023-04-08T08:42:22;100902.19;;;33.78;53.09
23223;BME280;11780;13.904;100.620;2023-04-08T08:44:53;100890.28;;;33.77;53.14
23223;BME280;11780;13.904;100.620;2023-04-08T08:47:24;100886.22;;;33.75;53.37
23223;BME280;11780;13.904;100.620;2023-04-08T08:49:54;100870.88;;;33.77;53.01
23223;BME280;11780;13.904;100.620;2023-04-08T08:52:25;100868.88;;;33.78;53.46
23223;BME280;11780;13.904;100.620;2023-04-08T08:54:58;100857.00;;;33.77;52.96
23223;BME280;11780;13.904;100.620;2023-04-08T08:57:50;100858.63;;;33.78;52.68
23223;BME280;11780;13.904;100.620;2023-04-08T09:00:36;100858.63;;;33.78;52.95
23223;BME280;11780;13.904;100.620;2023-04-08T09:03:24;100851.09;;;33.79;52.83
23223;BME280;11780;13.904;100.620;2023-04-08T09:05:58;100854.66;;;33.79;52.65
23223;BME280;11780;13.904;100.620;2023-04-08T09:08:33;100859.88;;;33.81;53.08
23223;BME280;11780;13.904;100.620;2023-04-08T09:13:43;100854.66;;;33.79;52.47
23223;BME280;11780;13.904;100.620;2023-04-08T09:16:18;100852.25;;;33.78;52.59
23223;BME280;11780;13.904;100.620;2023-04-08T09:18:49;100859.41;;;33.79;52.47
23223;BME280;11780;13.904;100.620;2023-04-08T09:21:22;100863.00;;;33.79;52.79
23223;BME280;11780;13.904;100.620;2023-04-08T09:23:53;100869.38;;;33.80;52.47
23223;BME280;11780;13.904;100.620;2023-04-08T09:26:24;100876.06;;;33.79;52.59
23223;BME280;11780;13.904;100.620;2023-04-08T09:31:58;100882.75;;;33.78;52.35
23223;BME280;11780;13.904;100.620;2023-04-08T09:34:29;100879.63;;;33.79;52.47
23223;BME280;11780;13.904;100.620;2023-04-08T09:37:01;100888.31;;;33.78;52.12
23223;BME280;11780;13.904;100.620;2023-04-08T09:39:31;100908.88;;;33.77;52.04
23223;BME280;11780;13.904;100.620;2023-04-08T09:42:04;100917.19;;;33.77;51.76
23223;BME280;11780;13.904;100.620;2023-04-08T09:44:36;100923.91;;;33.76;51.79
23223;BME280;11780;13.904;100.620;2023-04-08T09:47:16;100927.50;;;33.76;51.78
23223;BME280;11780;13.904;100.620;2023-04-08T09:49:52;100927.34;;;33.73;51.82
23223;BME280;11780;13.904;100.620;2023-04-08T09:52:41;100932.22;;;33.76;51.43
23223;BME280;11780;13.904;100.620;2023-04-08T09:55:15;100935.66;;;33.73;52.02
23223;BME280;11780;13.904;100.620;2023-04-08T09:57:57;100941.22;;;33.73;52.41
23223;BME280;11780;13.904;100.620;2023-04-08T10:00:33;100940.78;;;33.70;52.67
23223;BME280;11780;13.904;100.620;2023-04-08T10:05:57;100926.91;;;33.70;52.95
23223;BME280;11780;13.904;100.620;2023-04-08T10:08:30;100929.69;;;33.70;53.09
23223;BME280;11780;13.904;100.620;2023-04-08T10:11:02;100923.66;;;33.68;53.09
23223;BME280;11780;13.904;100.620;2023-04-08T10:13:32;100930.34;;;33.67;53.64
23223;BME280;11780;13.904;100.620;2023-04-08T10:18:52;100940.97;;;33.65;53.71
23223;BME280;11780;13.904;100.620;2023-04-08T10:21:36;100946.84;;;33.64;53.84
23223;BME280;11780;13.904;100.620;2023-04-08T10:24:08;100942.78;;;33.61;54.46
23223;BME280;11780;13.904;100.620;2023-04-08T10:26:43;100951.09;;;33.61;55.08
23223;BME280;11780;13.904;100.620;2023-04-08T10:31:48;100945.91;;;33.60;55.99
23223;BME280;11780;13.904;100.620;2023-04-08T10:34:21;100955.84;;;33.61;56.73
23223;BME280;11780;13.904;100.620;2023-04-08T10:36:55;100953.09;;;33.61;57.29
23223;BME280;11780;13.904;100.620;2023-04-08T10:39:27;100957.81;;;33.60;58.27
23223;BME280;11780;13.904;100.620;2023-04-08T10:42:00;100956.19;;;33.59;58.36
23223;BME280;11780;13.904;100.620;2023-04-08T10:44:31;100958.94;;;33.59;58.57
23223;BME280;11780;13.904;100.620;2023-04-08T10:47:02;100962.06;;;33.58;58.64
23223;BME280;11780;13.904;100.620;2023-04-08T10:49:33;100972.34;;;33.57;58.59
23223;BME280;11780;13.904;100.620;2023-04-08T10:52:07;100962.56;;;33.60;59.01
23223;BME280;11780;13.904;100.620;2023-04-08T10:54:45;100962.56;;;33.60;59.93
23223;BME280;11780;13.904;100.620;2023-04-08T10:57:23;100969.56;;;33.57;60.53
23223;BME280;11780;13.904;100.620;2023-04-08T10:59:55;100972.34;;;33.57;60.48
23223;BME280;11780;13.904;100.620;2023-04-08T11:02:31;100951.66;;;33.54;61.32
23223;BME280;11780;13.904;100.620;2023-04-08T11:05:03;100942.97;;;33.56;61.20
23223;BME280;11780;13.904;100.620;2023-04-08T11:07:39;100946.09;;;33.54;60.64
23223;BME280;11780;13.904;100.620;2023-04-08T11:10:10;100956.03;;;33.55;60.48
23223;BME280;11780;13.904;100.620;2023-04-08T11:12:41;100958.69;;;33.52;60.58
23223;BME280;11780;13.904;100.620;2023-04-08T11:15:12;100966.19;;;33.51;60.48
23223;BME280;11780;13.904;100.620;2023-04-08T11:17:43;100976.47;;;33.51;60.29
23223;BME280;11780;13.904;100.620;2023-04-08T11:20:14;100980.03;;;33.51;60.44
23223;BME280;11780;13.904;100.620;2023-04-08T11:22:46;100969.31;;;33.50;60.25
23223;BME280;11780;13.904;100.620;2023-04-08T11:25:16;100970.44;;;33.49;60.22
23223;BME280;11780;13.904;100.620;2023-04-08T11:27:48;100961.66;;;33.47;59.98
23223;BME280;11780;13.904;100.620;2023-04-08T11:30:19;100958.88;;;33.47;59.37
23223;BME280;11780;13.904;100.620;2023-04-08T11:32:50;100944.88;;;33.43;59.38
23223;BME280;11780;13.904;100.620;2023-04-08T11:35:21;100941.75;;;33.45;59.19
23223;BME280;11780;13.904;100.620;2023-04-08T11:37:52;100944.88;;;33.43;59.06
23223;BME280;11780;13.904;100.620;2023-04-08T11:40:23;100943.25;;;33.42;59.44
23223;BME280;11780;13.904;100.620;2023-04-08T11:42:53;100946.34;;;33.40;59.35
23223;BME280;11780;13.904;100.620;2023-04-08T11:45:24;100945.91;;;33.38;59.64
23223;BME280;11780;13.904;100.620;2023-04-08T11:47:55;100944.59;;;33.36;59.53
23223;BME280;11780;13.904;100.620;2023-04-08T11:50:25;100951.09;;;33.40;59.25
23223;BME280;11780;13.904;100.620;2023-04-08T11:52:58;100957.31;;;33.37;59.58
23223;BME280;11780;13.904;100.620;2023-04-08T11:55:31;100954.53;;;33.37;59.51
23223;BME280;11780;13.904;100.620;2023-04-08T11:58:03;100954.53;;;33.37;59.17
23223;BME280;11780;13.904;100.620;2023-04-08T12:00:35;100974.28;;;33.35;59.15
23223;BME280;11780;13.904;100.620;2023-04-08T12:03:06;100988.44;;;33.34;59.26
23223;BME280;11780;13.904;100.620;2023-04-08T12:05:37;100992.22;;;33.38;59.46
23223;BME280;11780;13.904;100.620;2023-04-08T12:08:08;101017.00;;;33.34;59.34
23223;BME280;11780;13.904;100.620;2023-04-08T12:10:38;101033.50;;;33.31;59.07
23223;BME280;11780;13.904;100.620;2023-04-08T12:13:09;101052.06;;;33.30;59.03
23223;BME280;11780;13.904;100.620;2023-04-08T12:15:40;101058.28;;;33.27;58.86
23223;BME280;11780;13.904;100.620;2023-04-08T12:18:10;101067.78;;;33.17;59.51
23223;BME280;11780;13.904;100.620;2023-04-08T12:20:41;101079.03;;;33.21;59.47
23223;BME280;11780;13.904;100.620;2023-04-08T12:23:11;101089.94;;;33.17;59.39
23223;BME280;11780;13.904;100.620;2023-04-08T12:25:42;101095.69;;;33.12;59.65
23223;BME280;11780;13.904;100.620;2023-04-08T12:28:12;101095.19;;;33.19;59.84
23223;BME280;11780;13.904;100.620;2023-04-08T12:30:43;101108.22;;;33.18;60.08
23223;BME280;11780;13.904;100.620;2023-04-08T12:33:13;101118.31;;;33.23;60.09
23223;BME280;11780;13.904;100.620;2023-04-08T12:35:44;101126.16;;;33.21;60.22
23223;BME280;11780;13.904;100.620;2023-04-08T12:38:14;101126.16;;;33.21;60.50
23223;BME280;11780;13.904;100.620;2023-04-08T12:40:45;101128.59;;;33.22;60.85
23223;BME280;11780;13.904;100.620;2023-04-08T12:43:16;101120.75;;;33.24;60.71
23223;BME280;11780;13.904;100.620;2023-04-08T12:45:47;101124.69;;;33.15;61.24
23223;BME280;11780;13.904;100.620;2023-04-08T12:48:18;101137.13;;;33.08;61.59
23223;BME280;11780;13.904;100.620;2023-04-08T12:50:49;101143.94;;;33.20;61.72
23223;BME280;11780;13.904;100.620;2023-04-08T12:53:19;101145.72;;;33.24;61.68
23223;BME280;11780;13.904;100.620;2023-04-08T12:56:02;101154.03;;;33.16;61.93
23223;BME280;11780;13.904;100.620;2023-04-08T12:58:33;101164.00;;;33.17;61.75
23223;BME280;11780;13.904;100.620;2023-04-08T13:01:03;101170.69;;;33.07;62.15
23223;BME280;11780;13.904;100.620;2023-04-08T13:03:35;101167.09;;;33.15;62.46
23223;BME280;11780;13.904;100.620;2023-04-08T13:06:05;101167.56;;;33.17;62.42
23223;BME280;11780;13.904;100.620;2023-04-08T13:08:36;101176.56;;;33.14;62.66
23223;BME280;11780;13.904;100.620;2023-04-08T13:11:09;101185.81;;;33.18;62.64
23223;BME280;11780;13.904;100.620;2023-04-08T13:13:39;101192.69;;;33.21;62.91
23223;BME280;11780;13.904;100.620;2023-04-08T13:16:10;101195.97;;;33.14;63.18